Time;durP1;ratioP1;P1;durP2;ratioP2;P2;SDS_P1;SDS_P2;PMS_P1;PMS_P2;Temp;Humidity;BMP_temperature;BMP_pressure;BME280_temperature;BME280_humidity;BME280_pressure;Samples;Min_cycle;Max_cycle;Signal;HPM_P1;HPM_P2
2022/09/26 00:00:12;;;;;;;8.70;5.73;;;7.90;99.90;;;;;;5050460;28;20489;-75
2022/09/26 00:02:39;;;;;;;6.67;5.30;;;7.80;99.90;;;;;;5050132;28;20960;-74
2022/09/26 00:05:09;;;;;;;8.40;5.97;;;7.80;99.90;;;;;;5049197;28;20519;-74
2022/09/26 00:07:36;;;;;;;11.93;6.70;;;7.80;99.90;;;;;;5044622;28;20825;-74
2022/09/26 00:10:02;;;;;;;9.10;5.87;;;7.80;99.90;;;;;;5050462;28;20456;-74
2022/09/26 00:12:29;;;;;;;10.70;6.50;;;7.80;99.90;;;;;;5050537;28;20961;-74
2022/09/26 00:14:56;;;;;;;12.00;6.57;;;7.80;99.90;;;;;;5049752;28;20826;-74
2022/09/26 00:17:24;;;;;;;7.23;6.53;;;7.80;99.90;;;;;;5048389;28;20451;-74
2022/09/26 00:19:50;;;;;;;9.20;6.87;;;7.80;99.90;;;;;;5049862;28;20449;-74
2022/09/26 00:22:17;;;;;;;11.37;7.37;;;7.80;99.90;;;;;;5050284;28;20460;-74
2022/09/26 00:24:44;;;;;;;10.77;7.70;;;7.80;99.90;;;;;;5050219;28;20484;-74
2022/09/26 00:27:10;;;;;;;15.00;8.23;;;7.70;99.90;;;;;;5049210;28;20491;-74
2022/09/26 00:29:38;;;;;;;15.30;9.30;;;7.70;99.90;;;;;;5050173;28;20846;-74
2022/09/26 00:32:05;;;;;;;11.63;8.27;;;7.70;99.90;;;;;;5049929;28;20464;-74
2022/09/26 00:34:33;;;;;;;9.67;7.87;;;7.70;99.90;;;;;;5050000;28;20472;-74
2022/09/26 00:37:00;;;;;;;15.30;8.00;;;7.70;99.90;;;;;;5049163;28;20480;-74
2022/09/26 00:39:27;;;;;;;11.20;7.97;;;7.60;99.90;;;;;;5049580;28;20448;-74
2022/09/26 00:41:54;;;;;;;11.03;8.00;;;7.60;99.90;;;;;;5050365;28;20952;-74
2022/09/26 00:44:45;;;;;;;8.60;6.80;;;7.50;99.90;;;;;;5050900;28;20481;-74
2022/09/26 00:47:32;;;;;;;14.67;7.10;;;7.50;99.90;;;;;;5052467;28;20456;-74
2022/09/26 00:50:03;;;;;;;10.03;6.10;;;7.40;99.90;;;;;;5053319;28;20460;-75
2022/09/26 00:52:34;;;;;;;8.00;6.23;;;7.40;99.90;;;;;;5053610;28;20457;-74
2022/09/26 00:55:04;;;;;;;7.37;5.97;;;7.40;99.90;;;;;;5052202;28;20466;-74
2022/09/26 00:57:35;;;;;;;10.13;6.30;;;7.40;99.90;;;;;;5053511;28;20479;-74
2022/09/26 01:00:06;;;;;;;17.20;6.50;;;7.30;99.90;;;;;;5053528;28;20463;-74
2022/09/26 01:02:33;;;;;;;9.53;5.97;;;7.30;99.90;;;;;;5047453;28;20452;-74
2022/09/26 01:05:01;;;;;;;17.27;6.03;;;7.30;99.90;;;;;;5052345;28;20486;-74
2022/09/26 01:07:29;;;;;;;9.67;6.20;;;7.30;99.90;;;;;;5053061;28;20457;-74
2022/09/26 01:09:57;;;;;;;14.87;6.90;;;7.30;99.90;;;;;;5052966;28;20452;-74
2022/09/26 01:12:24;;;;;;;24.23;6.57;;;7.30;99.90;;;;;;5052524;28;20556;-74
2022/09/26 01:14:53;;;;;;;9.70;5.27;;;7.30;99.90;;;;;;5052438;28;20466;-74
2022/09/26 01:17:21;;;;;;;11.13;5.70;;;7.30;99.90;;;;;;5052284;28;20458;-74
2022/09/26 01:19:59;;;;;;;5.70;5.10;;;7.30;99.90;;;;;;5053145;28;20502;-74
2022/09/26 01:22:56;;;;;;;6.33;4.97;;;7.20;99.90;;;;;;5052260;28;20449;-74
2022/09/26 01:25:36;;;;;;;7.97;5.70;;;7.20;99.90;;;;;;5051681;28;20493;-74
2022/09/26 01:28:16;;;;;;;6.00;5.10;;;7.20;99.90;;;;;;5050975;28;20955;-74
2022/09/26 01:30:50;;;;;;;11.93;4.90;;;7.20;99.90;;;;;;5047572;28;20458;-75
2022/09/26 01:33:35;;;;;;;6.23;5.23;;;7.20;99.90;;;;;;5052833;28;20450;-74
2022/09/26 01:36:43;;;;;;;9.00;6.00;;;7.20;99.90;;;;;;5051723;28;20961;-74
2022/09/26 01:39:42;;;;;;;9.70;5.27;;;7.20;99.90;;;;;;5032332;28;20529;-74
2022/09/26 01:42:19;;;;;;;9.70;5.80;;;7.20;99.90;;;;;;5048280;28;20976;-74
2022/09/26 01:44:51;;;;;;;8.27;5.50;;;7.10;99.90;;;;;;5052236;28;20478;-74
2022/09/26 01:47:26;;;;;;;11.97;5.83;;;7.10;99.90;;;;;;5051189;28;20460;-74
2022/09/26 01:49:59;;;;;;;7.73;5.33;;;7.10;99.90;;;;;;5052915;28;20543;-74
2022/09/26 01:52:34;;;;;;;9.40;5.90;;;7.00;99.90;;;;;;5051836;28;20512;-74
2022/09/26 01:55:08;;;;;;;9.77;5.13;;;7.00;99.90;;;;;;5051645;28;20481;-74
2022/09/26 01:57:39;;;;;;;7.13;4.67;;;6.90;99.90;;;;;;5051417;28;20460;-75
2022/09/26 02:00:11;;;;;;;5.10;4.60;;;6.90;99.90;;;;;;5052381;28;20864;-74
2022/09/26 02:02:42;;;;;;;4.93;4.53;;;6.80;99.90;;;;;;5046962;28;20532;-74
2022/09/26 02:05:16;;;;;;;4.57;4.07;;;6.80;99.90;;;;;;5051363;28;20493;-74
2022/09/26 02:07:49;;;;;;;5.20;4.50;;;6.80;99.90;;;;;;5049951;28;20962;-74
2022/09/26 02:10:20;;;;;;;4.43;4.13;;;6.70;99.90;;;;;;5051659;28;20462;-75
2022/09/26 02:12:53;;;;;;;5.20;4.30;;;6.70;99.90;;;;;;5052233;28;20809;-74
2022/09/26 02:15:22;;;;;;;5.43;3.93;;;6.70;99.90;;;;;;5050545;28;22257;-74
2022/09/26 02:17:55;;;;;;;5.50;4.37;;;6.60;99.90;;;;;;5051367;28;20538;-74
2022/09/26 02:20:28;;;;;;;4.90;4.50;;;6.60;99.90;;;;;;5051647;28;20456;-74
2022/09/26 02:22:57;;;;;;;4.27;3.97;;;6.60;99.90;;;;;;5052266;28;20463;-74
2022/09/26 02:25:24;;;;;;;5.00;4.23;;;6.60;99.90;;;;;;5049979;28;20481;-74
2022/09/26 02:27:50;;;;;;;4.63;4.23;;;6.60;99.90;;;;;;5051068;28;20451;-74
2022/09/26 02:30:17;;;;;;;5.57;4.33;;;6.60;99.90;;;;;;5051531;28;20456;-74
2022/09/26 02:32:44;;;;;;;6.60;3.87;;;6.50;99.90;;;;;;5051811;28;20452;-74
2022/09/26 02:37:56;;;;;;;9.80;5.37;;;6.50;99.90;;;;;;5051434;28;20918;-74
2022/09/26 02:40:27;;;;;;;6.93;5.20;;;6.50;99.90;;;;;;5052146;28;20526;-74
2022/09/26 02:43:03;;;;;;;15.77;7.17;;;6.60;99.90;;;;;;5051391;28;20442;-74
2022/09/26 02:45:41;;;;;;;39.40;6.23;;;6.60;99.90;;;;;;5050642;28;20488;-74
2022/09/26 02:48:29;;;;;;;21.97;6.63;;;6.60;99.90;;;;;;5049282;28;20491;-74
2022/09/26 02:51:10;;;;;;;121.83;8.63;;;6.60;99.90;;;;;;5051155;28;20465;-75
2022/09/26 02:54:00;;;;;;;20.47;5.30;;;6.60;99.90;;;;;;5045088;28;20468;-74
2022/09/26 02:56:33;;;;;;;10.83;5.20;;;6.60;99.90;;;;;;5049637;28;20465;-74
2022/09/26 02:59:07;;;;;;;56.63;6.73;;;6.60;99.90;;;;;;5051317;28;20456;-74
2022/09/26 03:01:40;;;;;;;123.57;9.20;;;6.60;99.90;;;;;;5045198;28;20456;-74
2022/09/26 03:04:13;;;;;;;5.90;4.87;;;6.60;99.90;;;;;;5050779;28;20882;-74
2022/09/26 03:06:46;;;;;;;51.47;5.63;;;6.60;99.90;;;;;;5044439;28;20855;-74
2022/09/26 03:09:16;;;;;;;87.90;7.73;;;6.60;99.90;;;;;;5051065;28;20506;-74
2022/09/26 03:11:44;;;;;;;81.57;6.50;;;6.60;99.90;;;;;;5051255;28;20487;-74
2022/09/26 03:14:12;;;;;;;48.23;6.30;;;6.50;99.90;;;;;;5050318;28;20523;-74
2022/09/26 03:16:43;;;;;;;17.87;5.13;;;6.40;99.90;;;;;;5050115;28;20462;-74
2022/09/26 03:19:15;;;;;;;29.83;6.20;;;6.40;99.90;;;;;;5050825;28;20460;-74
2022/09/26 03:21:44;;;;;;;55.00;5.53;;;6.40;99.90;;;;;;5051017;28;20461;-74
2022/09/26 03:24:11;;;;;;;54.80;5.90;;;6.40;99.90;;;;;;5050125;28;20481;-74
2022/09/26 03:26:40;;;;;;;48.57;5.53;;;6.40;99.90;;;;;;5050021;28;20464;-74
2022/09/26 03:29:07;;;;;;;61.77;6.20;;;6.40;99.90;;;;;;5050747;28;20487;-74
2022/09/26 03:31:34;;;;;;;79.30;6.23;;;6.30;99.90;;;;;;5050695;28;20460;-74
2022/09/26 03:34:00;;;;;;;55.10;5.90;;;6.30;99.90;;;;;;5050539;28;20487;-74
2022/09/26 03:36:28;;;;;;;61.23;6.40;;;6.40;99.90;;;;;;5049746;28;20450;-74
2022/09/26 03:38:56;;;;;;;26.37;6.50;;;6.40;99.90;;;;;;5047543;28;20451;-74
2022/09/26 03:41:23;;;;;;;51.13;7.00;;;6.40;99.90;;;;;;5050306;28;20453;-74
2022/09/26 03:43:49;;;;;;;48.93;7.50;;;6.50;99.90;;;;;;5050155;28;20534;-74
2022/09/26 03:46:17;;;;;;;46.77;7.77;;;6.60;99.90;;;;;;5049251;28;20991;-74
2022/09/26 03:48:43;;;;;;;34.97;7.23;;;6.60;99.90;;;;;;5050534;28;20455;-74
2022/09/26 03:51:12;;;;;;;72.30;7.93;;;6.60;99.90;;;;;;5050334;28;20455;-74
2022/09/26 03:53:41;;;;;;;69.33;8.13;;;6.60;99.90;;;;;;5050684;28;20474;-74
2022/09/26 03:56:11;;;;;;;47.30;7.60;;;6.60;99.90;;;;;;5049297;28;20444;-73
2022/09/26 03:58:38;;;;;;;31.93;7.80;;;6.60;99.90;;;;;;5049955;28;20868;-74
2022/09/26 04:01:06;;;;;;;31.47;6.87;;;6.60;99.90;;;;;;5050599;28;20456;-73
2022/09/26 04:03:34;;;;;;;19.47;6.83;;;6.70;99.90;;;;;;5044043;28;20470;-73
2022/09/26 04:06:01;;;;;;;21.83;7.53;;;6.80;99.90;;;;;;5048633;28;21089;-73
2022/09/26 04:08:28;;;;;;;53.23;8.13;;;6.90;99.90;;;;;;5050340;28;20854;-73
2022/09/26 04:11:01;;;;;;;17.90;6.40;;;6.90;99.90;;;;;;5050136;28;20453;-74
2022/09/26 04:13:29;;;;;;;22.10;6.90;;;7.00;99.90;;;;;;5049614;28;20560;-74
2022/09/26 04:15:56;;;;;;;12.80;7.10;;;7.00;99.90;;;;;;5049755;28;20458;-74
2022/09/26 04:18:22;;;;;;;41.77;7.97;;;6.90;99.90;;;;;;5050151;28;20456;-74
2022/09/26 04:20:49;;;;;;;37.80;8.30;;;7.00;99.90;;;;;;5053935;28;20463;-74
2022/09/26 04:23:16;;;;;;;13.57;7.17;;;7.00;99.90;;;;;;5053625;28;20949;-74
2022/09/26 04:25:43;;;;;;;46.00;8.10;;;7.00;99.90;;;;;;5053144;28;20489;-74
2022/09/26 04:28:09;;;;;;;23.17;8.00;;;7.00;99.90;;;;;;5052839;28;20457;-73
2022/09/26 04:30:38;;;;;;;16.20;7.70;;;7.00;99.90;;;;;;5054211;28;20876;-73
2022/09/26 04:33:05;;;;;;;33.13;8.13;;;7.00;99.90;;;;;;5051821;28;20458;-73
2022/09/26 04:35:32;;;;;;;64.37;9.13;;;7.10;99.90;;;;;;5053179;28;20450;-73
2022/09/26 04:37:59;;;;;;;51.53;8.27;;;7.10;99.90;;;;;;5053352;28;20470;-73
2022/09/26 04:40:25;;;;;;;62.07;9.27;;;7.10;99.90;;;;;;5052315;28;20477;-73
2022/09/26 04:42:52;;;;;;;22.70;8.40;;;7.10;99.90;;;;;;5053521;28;20457;-74
2022/09/26 04:45:19;;;;;;;47.00;9.27;;;7.10;99.90;;;;;;5052843;28;20485;-73
2022/09/26 04:47:47;;;;;;;63.53;8.90;;;7.10;99.90;;;;;;5052554;28;20461;-74
2022/09/26 04:50:13;;;;;;;90.83;9.97;;;7.10;99.90;;;;;;5053062;28;20503;-73
2022/09/26 04:52:41;;;;;;;63.77;10.60;;;7.10;99.90;;;;;;5053355;28;20456;-73
2022/09/26 04:55:09;;;;;;;83.37;10.87;;;7.00;99.90;;;;;;5052319;28;20471;-73
2022/09/26 04:57:36;;;;;;;47.47;10.00;;;7.00;99.90;;;;;;5052194;28;21155;-73
2022/09/26 05:00:06;;;;;;;23.63;9.60;;;7.00;99.90;;;;;;5052984;28;20945;-74
2022/09/26 05:02:32;;;;;;;23.23;10.83;;;7.00;99.90;;;;;;5053132;28;20458;-73
2022/09/26 05:05:00;;;;;;;38.03;10.43;;;7.00;99.90;;;;;;5052944;28;20510;-74
2022/09/26 05:07:28;;;;;;;30.27;10.63;;;7.00;99.90;;;;;;5052155;28;20458;-77
2022/09/26 05:09:55;;;;;;;23.20;9.60;;;7.10;99.90;;;;;;5052980;28;20583;-78
2022/09/26 05:12:21;;;;;;;43.87;11.63;;;7.10;99.90;;;;;;5051925;28;20447;-78
2022/09/26 05:14:48;;;;;;;19.90;10.37;;;7.10;99.90;;;;;;5052907;28;20495;-78
2022/09/26 05:17:15;;;;;;;22.87;10.70;;;7.20;99.90;;;;;;5049692;28;20489;-79
2022/09/26 05:19:42;;;;;;;17.20;9.57;;;7.20;99.90;;;;;;5052108;28;20450;-78
2022/09/26 05:22:10;;;;;;;23.10;9.43;;;7.30;99.90;;;;;;5052366;28;21011;-79
2022/09/26 05:27:23;;;;;;;30.27;9.77;;;7.40;99.90;;;;;;5051169;28;20447;-78
2022/09/26 05:29:51;;;;;;;74.13;10.73;;;7.40;99.90;;;;;;5052216;28;20528;-78
2022/09/26 05:32:19;;;;;;;32.43;10.67;;;7.40;99.90;;;;;;5052360;28;20507;-77
2022/09/26 05:34:47;;;;;;;14.07;8.87;;;7.40;99.90;;;;;;5052676;28;20473;-77
2022/09/26 05:37:15;;;;;;;11.83;9.43;;;7.40;99.90;;;;;;5051602;28;20460;-78
2022/09/26 05:42:27;;;;;;;26.93;8.90;;;7.50;99.90;;;;;;5051817;28;20437;-78
2022/09/26 05:44:53;;;;;;;12.90;9.57;;;7.50;99.90;;;;;;5052313;28;20483;-79
2022/09/26 05:47:20;;;;;;;11.50;7.83;;;7.50;99.90;;;;;;5051033;28;20466;-79
2022/09/26 05:49:47;;;;;;;13.40;8.80;;;7.50;99.90;;;;;;5052073;28;20554;-79
2022/09/26 05:52:15;;;;;;;13.97;8.37;;;7.50;99.90;;;;;;5052106;28;20465;-79
2022/09/26 05:54:42;;;;;;;9.60;8.17;;;7.50;99.90;;;;;;5048760;28;20484;-79
2022/09/26 05:57:09;;;;;;;13.17;8.30;;;7.50;99.90;;;;;;5047244;28;20443;-78
2022/09/26 05:59:36;;;;;;;11.47;8.17;;;7.50;99.90;;;;;;5049062;28;20987;-77
2022/09/26 06:02:04;;;;;;;9.43;7.37;;;7.50;99.90;;;;;;5050067;28;20948;-78
2022/09/26 06:04:31;;;;;;;11.57;8.23;;;7.60;99.90;;;;;;5048789;28;20470;-79
2022/09/26 06:06:58;;;;;;;9.50;7.53;;;7.60;99.90;;;;;;5046603;28;20546;-78
2022/09/26 06:09:26;;;;;;;9.40;6.93;;;7.60;99.90;;;;;;5049305;28;20449;-79
2022/09/26 06:11:53;;;;;;;9.67;7.60;;;7.70;99.90;;;;;;5049158;28;20457;-79
2022/09/26 06:14:19;;;;;;;14.43;8.37;;;7.60;99.90;;;;;;5049027;28;20484;-78
2022/09/26 06:16:46;;;;;;;8.67;6.60;;;7.70;99.90;;;;;;5049223;28;20482;-78
2022/09/26 06:19:13;;;;;;;9.40;7.20;;;7.70;99.90;;;;;;5048685;28;20476;-78
2022/09/26 06:21:42;;;;;;;13.83;7.40;;;7.80;99.90;;;;;;5049403;28;20460;-78
2022/09/26 06:24:09;;;;;;;7.73;6.80;;;7.80;99.90;;;;;;5048794;28;20479;-78
2022/09/26 06:26:37;;;;;;;7.90;6.63;;;7.90;99.90;;;;;;5048946;28;20491;-78
2022/09/26 06:29:06;;;;;;;10.50;6.67;;;8.00;99.90;;;;;;5048980;28;20460;-77
2022/09/26 06:31:33;;;;;;;10.13;6.90;;;8.30;99.90;;;;;;5051692;28;20550;-80
2022/09/26 06:34:00;;;;;;;10.20;6.53;;;8.90;99.90;;;;;;5051849;28;20474;-78
2022/09/26 06:36:27;;;;;;;7.00;6.30;;;9.20;99.90;;;;;;5053207;28;20965;-80
2022/09/26 06:38:54;;;;;;;12.50;6.27;;;9.30;99.90;;;;;;5054260;28;20596;-78
2022/09/26 06:41:21;;;;;;;7.50;5.47;;;9.50;99.90;;;;;;5053723;28;20490;-79
2022/09/26 06:43:49;;;;;;;9.87;5.57;;;9.60;99.90;;;;;;5052296;28;20499;-79
2022/09/26 06:46:16;;;;;;;13.20;6.40;;;9.60;99.90;;;;;;5050803;28;20495;-78
2022/09/26 06:48:43;;;;;;;10.47;6.27;;;9.60;99.90;;;;;;5051328;28;20506;-79
2022/09/26 06:51:12;;;;;;;11.30;5.17;;;9.90;99.90;;;;;;5052968;28;20479;-79
2022/09/26 06:53:39;;;;;;;12.50;5.70;;;10.80;99.90;;;;;;5054740;28;20469;-79
2022/09/26 06:56:06;;;;;;;7.00;5.47;;;11.90;99.90;;;;;;5050725;28;20506;-78
2022/09/26 06:58:33;;;;;;;6.30;4.53;;;12.80;99.90;;;;;;5053014;28;20950;-80
2022/09/26 07:01:01;;;;;;;6.60;4.40;;;13.70;99.90;;;;;;5054608;28;21057;-82
2022/09/26 07:03:28;;;;;;;4.40;4.00;;;14.30;99.90;;;;;;5053486;28;20476;-82
2022/09/26 07:05:55;;;;;;;4.40;3.87;;;14.90;99.90;;;;;;5051711;28;20935;-80
2022/09/26 07:08:22;;;;;;;8.53;3.70;;;15.50;99.90;;;;;;5051346;28;20492;-80
2022/09/26 07:10:49;;;;;;;7.17;4.00;;;15.90;99.90;;;;;;5052240;28;20458;-80
2022/09/26 07:13:16;;;;;;;5.30;3.90;;;16.10;99.90;;;;;;5052011;28;20463;-79
2022/09/26 07:15:45;;;;;;;12.10;3.40;;;16.20;99.90;;;;;;5051118;28;20457;-78
2022/09/26 07:18:13;;;;;;;7.80;3.77;;;16.00;99.90;;;;;;5050082;28;20450;-79
2022/09/26 07:20:41;;;;;;;13.67;3.90;;;15.50;99.90;;;;;;5050799;28;20449;-79
2022/09/26 07:23:10;;;;;;;5.20;3.70;;;15.00;99.90;;;;;;5050871;28;20458;-79
2022/09/26 07:25:38;;;;;;;4.30;3.90;;;14.80;99.90;;;;;;5050593;28;20482;-80
2022/09/26 07:28:05;;;;;;;5.67;4.27;;;14.90;99.90;;;;;;5047762;28;20972;-77
2022/09/26 07:30:32;;;;;;;12.43;3.87;;;15.10;99.90;;;;;;5051412;28;20456;-80
2022/09/26 07:33:01;;;;;;;6.30;3.90;;;15.10;99.90;;;;;;5051890;28;20454;-78
2022/09/26 07:35:30;;;;;;;7.77;3.53;;;15.00;99.90;;;;;;5045605;28;20480;-80
2022/09/26 07:37:57;;;;;;;5.53;4.03;;;15.20;99.90;;;;;;5046752;28;20476;-78
2022/09/26 07:40:23;;;;;;;4.20;2.97;;;15.50;99.90;;;;;;5046307;28;21006;-78
2022/09/26 07:42:51;;;;;;;4.27;3.23;;;15.60;99.90;;;;;;5048431;28;20461;-78
2022/09/26 07:50:09;;;;;;;4.83;3.30;;;15.60;99.90;;;;;;5046886;28;20485;-79
2022/09/26 07:50:53;;;;;;;6.20;3.10;;;15.90;99.90;;;;;;5036176;28;20530;-79
2022/09/26 07:53:20;;;;;;;10.07;2.77;;;15.70;99.90;;;;;;5047298;28;20449;-79
2022/09/26 07:58:27;;;;;;;2.80;2.60;;;15.20;99.90;;;;;;5051253;28;20440;-79
2022/09/26 08:00:54;;;;;;;3.50;2.70;;;14.60;99.90;;;;;;5052406;28;20441;-79
2022/09/26 08:03:21;;;;;;;3.13;2.40;;;14.50;99.90;;;;;;5051944;28;20457;-80
2022/09/26 08:05:48;;;;;;;2.83;2.43;;;14.70;99.90;;;;;;5051898;28;20488;-79
2022/09/26 08:08:16;;;;;;;6.37;2.10;;;14.50;99.90;;;;;;5051383;28;20452;-79
2022/09/26 08:10:43;;;;;;;2.10;1.90;;;14.80;99.90;;;;;;5051531;28;20453;-79
2022/09/26 08:13:10;;;;;;;3.77;2.20;;;14.90;99.90;;;;;;5053332;28;20502;-82
2022/09/26 08:15:37;;;;;;;1.90;1.80;;;14.80;99.90;;;;;;5054787;28;20445;-80
2022/09/26 08:18:04;;;;;;;3.77;1.83;;;14.60;99.90;;;;;;5053367;28;20453;-80
2022/09/26 08:20:31;;;;;;;8.00;1.80;;;14.80;99.90;;;;;;5055294;28;20449;-79
2022/09/26 08:22:57;;;;;;;4.23;1.70;;;15.00;99.90;;;;;;5056918;28;20449;-79
2022/09/26 08:25:25;;;;;;;4.83;1.93;;;15.10;99.90;;;;;;5061713;28;20468;-79
2022/09/26 08:27:57;;;;;;;3.57;1.90;;;15.20;99.90;;;;;;5067875;28;20460;-79
2022/09/26 08:30:30;;;;;;;2.80;1.60;;;15.30;99.90;;;;;;5070251;28;20446;-79
2022/09/26 08:32:57;;;;;;;2.93;1.60;;;15.40;99.90;;;;;;5069190;28;20472;-80
2022/09/26 08:35:25;;;;;;;2.90;1.87;;;15.40;99.90;;;;;;5068667;28;20480;-81
2022/09/26 08:37:52;;;;;;;8.60;1.80;;;15.50;99.90;;;;;;5065635;28;20599;-79
2022/09/26 08:40:22;;;;;;;2.80;1.53;;;15.40;99.90;;;;;;5057188;28;20452;-79
2022/09/26 08:42:58;;;;;;;3.10;1.90;;;15.40;99.90;;;;;;5059204;28;20454;-81
2022/09/26 08:48:47;;;;;;;3.73;1.63;;;16.00;99.90;;;;;;5058067;28;21608;-79
2022/09/26 08:51:23;;;;;;;1.80;1.57;;;16.10;99.90;;;;;;5058564;28;20906;-80
2022/09/26 08:53:53;;;;;;;4.40;1.77;;;16.00;99.90;;;;;;5058159;28;20479;-80
2022/09/26 08:56:25;;;;;;;5.00;1.97;;;15.70;99.90;;;;;;5059884;28;20445;-80
2022/09/26 08:58:54;;;;;;;1.93;1.50;;;15.90;99.90;;;;;;5057641;28;20956;-80
2022/09/26 09:01:27;;;;;;;4.60;2.40;;;16.00;99.90;;;;;;5059116;28;20998;-80
2022/09/26 09:04:01;;;;;;;1.90;1.70;;;16.30;99.90;;;;;;5059734;28;20464;-80
2022/09/26 09:06:28;;;;;;;1.80;1.70;;;16.30;99.90;;;;;;5057573;28;20996;-80
2022/09/26 09:08:57;;;;;;;1.87;1.60;;;16.40;99.90;;;;;;5061707;28;20453;-80
2022/09/26 09:11:47;;;;;;;5.13;2.73;;;16.70;99.90;;;;;;5060246;28;20449;-81
2022/09/26 09:14:32;;;;;;;3.63;1.77;;;16.60;99.90;;;;;;5057689;28;20484;-82
2022/09/26 09:17:09;;;;;;;4.90;1.80;;;16.90;99.90;;;;;;5059911;28;20449;-81
2022/09/26 09:19:42;;;;;;;1.57;1.40;;;16.90;99.90;;;;;;5060116;28;20477;-81
2022/09/26 09:22:32;;;;;;;4.90;1.60;;;16.70;99.90;;;;;;5061934;28;20468;-79
2022/09/26 09:25:03;;;;;;;3.23;1.73;;;16.80;99.90;;;;;;5058681;28;20530;-81
2022/09/26 09:27:44;;;;;;;3.43;2.00;;;16.80;99.90;;;;;;5058261;28;20519;-81
2022/09/26 09:30:18;;;;;;;5.67;1.80;;;17.10;99.90;;;;;;5057275;28;20423;-81
2022/09/26 09:32:51;;;;;;;7.00;1.60;;;17.50;99.90;;;;;;5057159;28;20450;-80
2022/09/26 09:35:22;;;;;;;2.17;1.83;;;17.70;99.90;;;;;;5055020;28;20452;-80
2022/09/26 09:37:51;;;;;;;1.90;1.80;;;17.20;99.90;;;;;;5054417;28;20491;-80
2022/09/26 09:40:25;;;;;;;1.93;1.53;;;17.00;99.90;;;;;;5058687;28;20961;-80
2022/09/26 09:42:56;;;;;;;1.80;1.57;;;17.20;99.90;;;;;;5057721;28;20461;-81
2022/09/26 09:45:30;;;;;;;6.90;1.70;;;17.60;99.90;;;;;;5057035;28;20473;-82
2022/09/26 09:47:57;;;;;;;4.37;1.87;;;17.50;99.90;;;;;;5020776;28;1071188;-81
2022/09/26 09:50:35;;;;;;;3.63;1.80;;;17.70;99.90;;;;;;5058558;28;20457;-79
2022/09/26 09:53:10;;;;;;;2.17;1.77;;;17.80;99.90;;;;;;5057535;28;20424;-81
2022/09/26 09:55:48;;;;;;;1.77;1.60;;;17.50;99.90;;;;;;5056533;28;20449;-81
2022/09/26 09:58:34;;;;;;;2.50;1.67;;;17.20;99.90;;;;;;5056967;28;20438;-80
2022/09/26 10:01:11;;;;;;;3.57;1.50;;;17.10;99.90;;;;;;5058578;28;20478;-81
2022/09/26 10:03:42;;;;;;;2.07;1.60;;;17.10;99.90;;;;;;5061400;28;20440;-81
2022/09/26 10:06:10;;;;;;;2.07;1.77;;;17.20;99.90;;;;;;5063031;28;20545;-80
2022/09/26 10:08:39;;;;;;;2.00;1.80;;;17.30;99.90;;;;;;5063743;28;20449;-80
2022/09/26 10:11:22;;;;;;;3.83;1.63;;;17.30;99.90;;;;;;5063126;28;20453;-81
2022/09/26 10:13:51;;;;;;;3.50;2.00;;;17.00;99.90;;;;;;5054892;28;20560;-80
2022/09/26 10:16:20;;;;;;;6.80;2.10;;;16.90;99.90;;;;;;5053255;28;20445;-80
2022/09/26 10:18:55;;;;;;;2.67;1.90;;;16.80;99.90;;;;;;5051562;28;20456;-80
2022/09/26 10:21:31;;;;;;;2.23;2.03;;;16.50;99.90;;;;;;5052032;28;20465;-80
2022/09/26 10:24:00;;;;;;;4.03;2.13;;;16.00;99.90;;;;;;5051659;28;20552;-80
2022/09/26 10:26:33;;;;;;;3.00;2.17;;;15.70;99.90;;;;;;5051541;28;20481;-80
2022/09/26 10:29:03;;;;;;;2.20;2.10;;;15.60;99.90;;;;;;5068587;28;20533;-79
2022/09/26 10:31:35;;;;;;;2.60;2.20;;;15.50;99.90;;;;;;5059972;28;20456;-80
2022/09/26 10:34:04;;;;;;;2.53;2.10;;;15.40;99.90;;;;;;5054683;28;20527;-79
2022/09/26 10:36:33;;;;;;;2.23;1.93;;;15.40;99.90;;;;;;5055773;28;20452;-79
2022/09/26 10:41:48;;;;;;;3.60;2.10;;;15.10;99.90;;;;;;5051105;28;20871;-79
2022/09/26 10:44:23;;;;;;;4.73;2.60;;;15.20;99.90;;;;;;5046994;28;20230;-78
2022/09/26 10:46:55;;;;;;;4.80;2.37;;;15.30;99.90;;;;;;5047291;28;21066;-78
2022/09/26 10:49:29;;;;;;;3.63;2.80;;;15.30;99.90;;;;;;5047879;28;20953;-78
2022/09/26 10:52:03;;;;;;;3.10;2.27;;;15.10;99.90;;;;;;5048918;28;20519;-78
2022/09/26 10:54:40;;;;;;;5.83;2.33;;;14.90;99.90;;;;;;5047597;28;20477;-78
2022/09/26 10:57:17;;;;;;;3.47;2.80;;;14.80;99.90;;;;;;5047700;28;20449;-78
2022/09/26 10:59:44;;;;;;;4.50;2.37;;;14.60;99.90;;;;;;5049083;28;20543;-77
2022/09/26 11:02:18;;;;;;;7.53;2.50;;;14.40;99.90;;;;;;5049240;28;20446;-79
2022/09/26 11:07:34;;;;;;;3.70;2.10;;;14.10;99.90;;;;;;5048452;28;20439;-78
2022/09/26 11:10:06;;;;;;;7.33;2.70;;;14.00;99.90;;;;;;5048724;28;20245;-78
2022/09/26 11:12:38;;;;;;;8.20;2.90;;;13.90;99.90;;;;;;5048618;28;20489;-78
2022/09/26 11:15:08;;;;;;;3.57;2.70;;;13.80;99.90;;;;;;5048155;28;20478;-78
2022/09/26 11:17:46;;;;;;;5.00;2.43;;;13.70;99.90;;;;;;5047671;28;20522;-78
2022/09/26 11:20:26;;;;;;;3.00;2.30;;;13.70;99.90;;;;;;5046708;28;20452;-74
2022/09/26 11:23:01;;;;;;;8.70;2.40;;;13.90;99.90;;;;;;5047296;28;20983;-74
2022/09/26 11:25:32;;;;;;;3.10;2.50;;;14.10;99.90;;;;;;5047135;28;20597;-77
2022/09/26 11:28:05;;;;;;;4.73;2.20;;;14.00;99.90;;;;;;5046394;28;20478;-77
2022/09/26 11:30:38;;;;;;;4.20;2.57;;;13.90;99.90;;;;;;5046698;28;20483;-77
2022/09/26 11:33:12;;;;;;;5.53;2.20;;;13.80;99.90;;;;;;5047727;28;20507;-79
2022/09/26 11:35:54;;;;;;;2.47;2.27;;;13.80;99.90;;;;;;5045468;28;20463;-79
2022/09/26 11:38:37;;;;;;;4.13;2.30;;;13.80;99.90;;;;;;5045372;28;20829;-77
2022/09/26 11:41:35;;;;;;;4.13;2.40;;;13.80;99.90;;;;;;5043833;28;20451;-78
2022/09/26 11:44:27;;;;;;;4.72;2.20;;;13.70;99.90;;;;;;5043793;28;20534;-77
2022/09/26 11:47:07;;;;;;;4.80;2.90;;;13.70;99.90;;;;;;5044536;28;20232;-79
2022/09/26 11:49:51;;;;;;;4.37;2.87;;;13.70;99.90;;;;;;5046186;28;21029;-77
2022/09/26 11:52:40;;;;;;;4.78;1.95;;;13.80;99.90;;;;;;5045262;28;20443;-77
2022/09/26 11:55:17;;;;;;;2.13;2.03;;;13.90;99.90;;;;;;5046460;28;20750;-78
2022/09/26 11:57:49;;;;;;;6.07;2.50;;;13.90;99.90;;;;;;5047095;28;20452;-78
2022/09/26 12:00:26;;;;;;;2.37;2.17;;;13.90;99.90;;;;;;5046759;28;20457;-78
2022/09/26 12:03:34;;;;;;;3.33;2.30;;;13.90;99.90;;;;;;5047043;28;20952;-78
2022/09/26 12:06:12;;;;;;;3.33;2.30;;;13.80;99.90;;;;;;5045096;28;20484;-80
2022/09/26 12:08:56;;;;;;;3.30;2.43;;;13.90;99.90;;;;;;5046475;28;20484;-78
2022/09/26 12:11:32;;;;;;;5.57;2.77;;;13.90;99.90;;;;;;5045980;28;20468;-77
2022/09/26 12:14:08;;;;;;;3.70;2.70;;;13.80;99.90;;;;;;5046033;28;20494;-79
2022/09/26 12:16:44;;;;;;;3.77;2.80;;;13.80;99.90;;;;;;5046421;28;20468;-78
2022/09/26 12:19:23;;;;;;;2.63;2.30;;;13.80;99.90;;;;;;5047174;28;20457;-77
2022/09/26 12:24:54;;;;;;;2.83;2.63;;;13.90;99.90;;;;;;5045594;28;20475;-77
2022/09/26 12:27:28;;;;;;;3.88;2.00;;;14.00;99.90;;;;;;5044116;28;21285;-78
2022/09/26 12:30:02;;;;;;;2.93;2.70;;;14.10;99.90;;;;;;5045958;28;20217;-78
2022/09/26 12:32:46;;;;;;;4.63;2.70;;;14.20;99.90;;;;;;5045719;28;20961;-77
2022/09/26 12:35:43;;;;;;;2.63;2.43;;;14.40;99.90;;;;;;5045134;28;21068;-78
2022/09/26 12:38:43;;;;;;;2.43;2.27;;;14.50;99.90;;;;;;5046198;28;20524;-76
2022/09/26 12:41:21;;;;;;;3.43;2.63;;;14.50;99.90;;;;;;5043220;28;20590;-77
2022/09/26 12:44:06;;;;;;;3.90;2.37;;;14.40;99.90;;;;;;5049326;28;20526;-79
2022/09/26 12:47:00;;;;;;;3.20;2.03;;;14.40;99.90;;;;;;5050581;28;20538;-79
2022/09/26 12:50:03;;;;;;;4.93;1.90;;;14.40;99.90;;;;;;5052179;28;20468;-78
2022/09/26 12:52:51;;;;;;;2.53;2.30;;;14.10;99.90;;;;;;5041920;28;20464;-80
2022/09/26 12:55:32;;;;;;;2.57;2.37;;;13.90;99.90;;;;;;5051364;28;20473;-79
2022/09/26 12:58:17;;;;;;;4.03;2.30;;;13.70;99.90;;;;;;5050180;28;20450;-79
2022/09/26 13:00:55;;;;;;;6.50;2.77;;;13.40;99.90;;;;;;5050487;28;20457;-77
2022/09/26 13:03:59;;;;;;;3.67;2.20;;;13.10;99.90;;;;;;5049809;28;20450;-77
2022/09/26 13:06:42;;;;;;;4.17;3.40;;;13.20;99.90;;;;;;5049299;28;21777;-79
2022/09/26 13:09:24;;;;;;;3.90;2.60;;;13.20;99.90;;;;;;5050252;28;20454;-77
2022/09/26 13:12:03;;;;;;;2.53;2.33;;;13.10;99.90;;;;;;5049344;28;20449;-78
2022/09/26 13:14:47;;;;;;;3.83;2.90;;;13.10;99.90;;;;;;5050057;28;20577;-79
2022/09/26 13:17:16;;;;;;;5.03;2.90;;;13.10;99.90;;;;;;5047810;28;20493;-77
2022/09/26 13:19:50;;;;;;;2.53;2.33;;;13.00;99.90;;;;;;5049999;28;20457;-79
2022/09/26 13:22:31;;;;;;;2.73;2.53;;;13.00;99.90;;;;;;5049209;28;20603;-78
2022/09/26 13:25:06;;;;;;;4.90;2.60;;;13.00;99.90;;;;;;5049571;28;20472;-77
2022/09/26 13:27:39;;;;;;;4.13;2.60;;;13.00;99.90;;;;;;5049144;28;20489;-79
2022/09/26 13:30:12;;;;;;;5.87;2.80;;;13.00;99.90;;;;;;5049853;28;20500;-79
2022/09/26 13:32:52;;;;;;;2.27;2.00;;;13.00;99.90;;;;;;5049153;28;20505;-79
2022/09/26 13:35:21;;;;;;;2.80;2.60;;;13.00;99.90;;;;;;5049610;28;20470;-80
2022/09/26 13:37:55;;;;;;;5.97;2.57;;;13.00;99.90;;;;;;5048977;28;20472;-77